Time;durP1;ratioP1;P1;durP2;ratioP2;P2;SDS_P1;SDS_P2;PMS_P1;PMS_P2;Temp;Humidity;BMP_temperature;BMP_pressure;BME280_temperature;BME280_humidity;BME280_pressure;Samples;Min_cycle;Max_cycle;Signal;HPM_P1;HPM_P2
2024/01/14 00:02:22;;;;;;;29.87;19.87;;;3.30;91.90;;;;;;5074542;28;20298;-88
2024/01/14 00:04:48;;;;;;;32.63;20.77;;;3.40;91.80;;;;;;5056831;28;20178;-87
2024/01/14 00:07:13;;;;;;;32.43;10.10;;;3.40;91.80;;;;;;5057668;28;20182;-88
2024/01/14 00:09:39;;;;;;;26.90;10.23;;;3.40;91.90;;;;;;5074506;28;20196;-86
2024/01/14 00:12:05;;;;;;;31.97;10.33;;;3.50;91.90;;;;;;5075041;28;20170;-87
2024/01/14 00:14:31;;;;;;;37.53;11.37;;;3.60;91.60;;;;;;5074631;28;20173;-87
2024/01/14 00:16:56;;;;;;;34.73;10.73;;;3.60;91.60;;;;;;5074885;28;20202;-86
2024/01/14 00:19:22;;;;;;;28.83;10.40;;;3.60;91.40;;;;;;5056265;28;20172;-87
2024/01/14 00:21:48;;;;;;;33.40;11.63;;;3.60;91.40;;;;;;5074329;28;20538;-87
2024/01/14 00:24:13;;;;;;;33.90;11.10;;;3.70;91.40;;;;;;5074389;28;20174;-86
2024/01/14 00:26:39;;;;;;;43.53;12.03;;;3.70;91.30;;;;;;5074217;28;20285;-87
2024/01/14 00:29:04;;;;;;;25.77;12.30;;;3.80;90.80;;;;;;5056354;28;20178;-87
2024/01/14 00:31:30;;;;;;;32.93;12.90;;;3.80;90.20;;;;;;5055991;28;20194;-87
2024/01/14 00:33:55;;;;;;;29.20;13.50;;;3.80;89.90;;;;;;5056367;28;20228;-87
2024/01/14 00:36:21;;;;;;;25.17;12.50;;;3.80;89.40;;;;;;5074045;28;20169;-87
2024/01/14 00:38:47;;;;;;;25.87;12.40;;;3.80;89.30;;;;;;5055794;28;20201;-87
2024/01/14 00:41:12;;;;;;;41.17;14.00;;;3.80;88.90;;;;;;5073933;28;20203;-87
2024/01/14 00:43:38;;;;;;;31.67;13.50;;;3.80;88.80;;;;;;5074095;28;20253;-87
2024/01/14 00:46:04;;;;;;;32.00;14.53;;;3.80;88.90;;;;;;5055995;28;20178;-87
2024/01/14 00:48:30;;;;;;;27.17;13.47;;;3.80;89.00;;;;;;5056748;28;20274;-86
2024/01/14 00:50:56;;;;;;;35.13;12.97;;;3.90;88.90;;;;;;5073538;28;20248;-87
2024/01/14 00:53:21;;;;;;;26.40;13.57;;;3.80;88.90;;;;;;5073903;28;20168;-86
2024/01/14 00:55:47;;;;;;;23.00;13.37;;;3.70;89.10;;;;;;5055863;28;20183;-87
2024/01/14 00:58:13;;;;;;;29.30;13.77;;;3.70;89.00;;;;;;5073722;28;20293;-87
2024/01/14 01:00:38;;;;;;;24.20;14.80;;;3.60;89.10;;;;;;5073521;28;20193;-87
2024/01/14 01:03:04;;;;;;;31.63;12.83;;;3.50;89.20;;;;;;5055289;28;20194;-87
2024/01/14 01:05:30;;;;;;;30.87;12.93;;;3.50;89.20;;;;;;5055636;28;20178;-87
2024/01/14 01:07:55;;;;;;;25.77;12.67;;;3.50;89.30;;;;;;5055498;28;20181;-87
2024/01/14 01:10:21;;;;;;;33.30;28.43;;;3.40;89.40;;;;;;5055593;28;20222;-86
2024/01/14 01:12:46;;;;;;;32.97;27.70;;;3.50;89.60;;;;;;5073652;28;20209;-86
2024/01/14 01:15:12;;;;;;;38.27;26.97;;;3.50;89.70;;;;;;5055466;28;20189;-86
2024/01/14 01:17:38;;;;;;;31.80;25.90;;;3.50;89.80;;;;;;5073615;28;20206;-87
2024/01/14 01:20:05;;;;;;;35.07;26.20;;;3.60;89.90;;;;;;5055662;28;20219;-86
2024/01/14 01:22:31;;;;;;;31.00;25.90;;;3.60;90.00;;;;;;5055638;28;20618;-87
2024/01/14 01:24:56;;;;;;;39.13;25.27;;;3.70;89.70;;;;;;5055870;28;20265;-86
2024/01/14 01:27:22;;;;;;;33.67;24.67;;;3.60;90.00;;;;;;5073874;28;20189;-86
2024/01/14 01:29:47;;;;;;;27.77;24.90;;;3.50;90.30;;;;;;5073393;28;20206;-87
2024/01/14 01:32:13;;;;;;;26.20;23.50;;;3.50;90.50;;;;;;5055380;28;20185;-87
2024/01/14 01:34:38;;;;;;;26.27;23.67;;;3.40;90.60;;;;;;5055588;28;20635;-87
2024/01/14 01:37:04;;;;;;;26.47;23.97;;;3.30;90.70;;;;;;5055350;28;20205;-87
2024/01/14 01:39:30;;;;;;;25.20;23.40;;;3.20;90.90;;;;;;5055586;28;20177;-87
2024/01/14 01:41:56;;;;;;;27.70;25.17;;;3.10;91.10;;;;;;5055498;28;20171;-87
2024/01/14 01:44:22;;;;;;;27.40;25.10;;;2.90;91.20;;;;;;5073443;28;20178;-86
2024/01/14 01:46:49;;;;;;;26.33;24.13;;;2.80;91.40;;;;;;5055530;28;20173;-87
2024/01/14 01:49:15;;;;;;;25.53;22.93;;;2.80;91.60;;;;;;5055370;28;20177;-87
2024/01/14 01:51:44;;;;;;;24.17;22.10;;;2.80;91.70;;;;;;5055243;28;20247;-87
2024/01/14 01:54:11;;;;;;;25.77;23.23;;;2.80;91.90;;;;;;5073296;28;20175;-87
2024/01/14 01:56:38;;;;;;;25.33;22.53;;;2.80;91.90;;;;;;5073233;28;20170;-86
2024/01/14 01:59:05;;;;;;;25.00;22.83;;;2.80;92.10;;;;;;5055473;28;20194;-87
2024/01/14 02:01:33;;;;;;;25.03;23.27;;;2.80;92.10;;;;;;5073137;28;20203;-87
2024/01/14 02:04:00;;;;;;;26.30;24.03;;;2.80;92.00;;;;;;5055337;28;20675;-87
2024/01/14 02:06:27;;;;;;;27.77;24.73;;;2.80;92.10;;;;;;5055157;28;20700;-87
2024/01/14 02:08:53;;;;;;;29.07;26.00;;;2.70;92.00;;;;;;5073291;28;20184;-87
2024/01/14 02:11:19;;;;;;;27.33;24.50;;;2.60;92.00;;;;;;5055017;28;20216;-86
2024/01/14 02:13:45;;;;;;;26.47;23.13;;;2.70;91.90;;;;;;5073483;28;20177;-87
2024/01/14 02:16:12;;;;;;;24.23;21.93;;;2.60;91.80;;;;;;5075527;28;20236;-87
2024/01/14 02:18:37;;;;;;;23.53;21.10;;;2.60;91.80;;;;;;5076782;28;20200;-87
2024/01/14 02:21:03;;;;;;;22.87;20.30;;;2.70;91.90;;;;;;5058672;28;20751;-86
2024/01/14 02:23:35;;;;;;;23.07;20.23;;;2.80;91.70;;;;;;5076737;28;20591;-87
2024/01/14 02:26:00;;;;;;;24.70;21.40;;;2.80;91.50;;;;;;5077097;28;20156;-86
2024/01/14 02:28:26;;;;;;;27.73;20.30;;;2.70;91.40;;;;;;5058839;28;20183;-86
2024/01/14 02:30:53;;;;;;;26.80;20.93;;;2.80;91.30;;;;;;5058639;28;20199;-86
2024/01/14 02:33:19;;;;;;;26.57;19.40;;;2.80;91.10;;;;;;5058552;28;20658;-86
2024/01/14 02:35:45;;;;;;;32.87;19.93;;;2.80;90.70;;;;;;5076683;28;20176;-87
2024/01/14 02:38:10;;;;;;;22.90;20.20;;;2.70;90.80;;;;;;5058425;28;20203;-86
2024/01/14 02:40:36;;;;;;;22.73;20.37;;;2.80;90.80;;;;;;5058990;28;20191;-86
2024/01/14 02:43:02;;;;;;;18.43;8.40;;;2.80;90.70;;;;;;5058284;28;20177;-86
2024/01/14 02:45:30;;;;;;;16.83;8.77;;;2.80;90.60;;;;;;5058460;28;20665;-87
2024/01/14 02:47:56;;;;;;;21.17;9.57;;;2.80;90.50;;;;;;5058189;28;20723;-86
2024/01/14 02:50:22;;;;;;;14.63;8.47;;;2.80;90.60;;;;;;5058198;28;20283;-87
2024/01/14 02:52:47;;;;;;;10.83;8.63;;;2.80;90.70;;;;;;5076362;28;20502;-86
2024/01/14 02:55:13;;;;;;;23.77;10.37;;;2.80;90.60;;;;;;5058184;28;20670;-87
2024/01/14 02:57:39;;;;;;;13.90;8.63;;;2.70;90.70;;;;;;5076202;28;20199;-86
2024/01/14 03:00:06;;;;;;;18.87;8.50;;;2.80;90.90;;;;;;5058067;28;20195;-89
2024/01/14 03:02:32;;;;;;;17.80;8.37;;;2.80;91.10;;;;;;5057885;28;20228;-88
2024/01/14 03:04:57;;;;;;;18.80;8.60;;;2.80;91.20;;;;;;5058201;28;20168;-87
2024/01/14 03:07:23;;;;;;;16.80;9.37;;;2.70;91.30;;;;;;5058161;28;20231;-86
2024/01/14 03:09:48;;;;;;;19.23;8.33;;;2.60;91.40;;;;;;5057502;28;20561;-86
2024/01/14 03:12:14;;;;;;;24.50;8.30;;;2.60;91.60;;;;;;5057701;28;20212;-86
2024/01/14 03:14:39;;;;;;;20.80;7.83;;;2.60;91.70;;;;;;5058501;28;20179;-86
2024/01/14 03:17:05;;;;;;;12.77;7.20;;;2.60;91.70;;;;;;5075480;28;20283;-86
2024/01/14 03:19:30;;;;;;;17.70;7.93;;;2.50;91.90;;;;;;5057445;28;20649;-86
2024/01/14 03:21:56;;;;;;;15.70;8.07;;;2.50;91.90;;;;;;5075174;28;20167;-86
2024/01/14 03:24:22;;;;;;;19.87;8.20;;;2.60;92.10;;;;;;5075420;28;20199;-86
2024/01/14 03:26:47;;;;;;;20.43;7.90;;;2.50;92.10;;;;;;5056704;28;20163;-87
2024/01/14 03:29:13;;;;;;;23.47;8.10;;;2.50;92.20;;;;;;5057308;28;20171;-87
2024/01/14 03:31:38;;;;;;;17.53;8.07;;;2.40;92.20;;;;;;5057024;28;20189;-87
2024/01/14 03:34:04;;;;;;;16.93;9.00;;;2.50;92.40;;;;;;5057030;28;20188;-86
2024/01/14 03:36:29;;;;;;;21.10;8.30;;;2.50;92.50;;;;;;5075209;28;20175;-87
2024/01/14 03:38:55;;;;;;;13.93;7.33;;;2.60;92.70;;;;;;5075378;28;20313;-87
2024/01/14 03:41:20;;;;;;;18.13;8.20;;;2.60;92.80;;;;;;5057064;28;20214;-86
2024/01/14 03:43:46;;;;;;;21.37;7.83;;;2.60;92.80;;;;;;5057045;28;20178;-87
2024/01/14 03:46:12;;;;;;;22.93;16.07;;;2.60;92.90;;;;;;5056746;28;20172;-86
2024/01/14 03:48:38;;;;;;;24.67;17.17;;;2.70;92.80;;;;;;5074866;28;20251;-87
2024/01/14 03:51:03;;;;;;;36.47;19.37;;;2.60;92.70;;;;;;5056932;28;20215;-86
2024/01/14 03:53:29;;;;;;;27.57;18.37;;;2.70;92.70;;;;;;5057021;28;20173;-87
2024/01/14 03:55:54;;;;;;;28.27;16.87;;;2.70;92.60;;;;;;5056664;28;20181;-86
2024/01/14 03:58:20;;;;;;;19.57;17.47;;;2.80;92.60;;;;;;5074677;28;20196;-87
2024/01/14 04:00:45;;;;;;;26.20;18.27;;;2.80;92.60;;;;;;5056838;28;20191;-87
2024/01/14 04:03:11;;;;;;;19.23;17.20;;;2.90;92.40;;;;;;5057594;28;20177;-87
2024/01/14 04:05:36;;;;;;;20.73;18.57;;;2.80;92.30;;;;;;5074855;28;20205;-86
2024/01/14 04:08:02;;;;;;;20.90;16.40;;;2.80;92.30;;;;;;5056768;28;20253;-87
2024/01/14 04:10:28;;;;;;;20.97;17.73;;;2.80;92.30;;;;;;5056711;28;20582;-87
2024/01/14 04:12:53;;;;;;;21.33;19.07;;;2.70;92.40;;;;;;5056798;28;20175;-87
2024/01/14 04:15:22;;;;;;;21.60;17.00;;;2.70;92.40;;;;;;5074508;28;20183;-87
2024/01/14 04:17:48;;;;;;;18.23;16.70;;;2.60;92.40;;;;;;5056655;28;20295;-86
2024/01/14 04:20:14;;;;;;;20.30;16.30;;;2.80;92.30;;;;;;5056331;28;20690;-87
2024/01/14 04:22:39;;;;;;;23.90;16.87;;;2.80;92.30;;;;;;5057638;28;20178;-87
2024/01/14 04:25:05;;;;;;;18.37;16.93;;;2.70;92.20;;;;;;5056489;28;20176;-87
2024/01/14 04:27:30;;;;;;;28.27;17.70;;;2.70;92.20;;;;;;5074279;28;20184;-86
2024/01/14 04:29:56;;;;;;;21.53;17.27;;;2.70;92.10;;;;;;5056083;28;20196;-86
2024/01/14 04:32:21;;;;;;;25.30;18.40;;;2.70;92.10;;;;;;5074611;28;20522;-86
2024/01/14 04:34:47;;;;;;;32.80;18.77;;;2.70;92.00;;;;;;5056719;28;20174;-87
2024/01/14 04:37:13;;;;;;;23.83;18.27;;;2.70;91.90;;;;;;5055683;28;20195;-87
2024/01/14 04:39:38;;;;;;;27.70;18.43;;;2.60;91.80;;;;;;5073387;28;20217;-87
2024/01/14 04:42:05;;;;;;;22.50;19.67;;;2.60;91.90;;;;;;5074139;28;20174;-87
2024/01/14 04:44:30;;;;;;;23.23;19.80;;;2.60;91.90;;;;;;5056109;28;20685;-86
2024/01/14 04:46:56;;;;;;;29.17;19.00;;;2.50;91.90;;;;;;5073917;28;20171;-87
2024/01/14 04:49:21;;;;;;;30.97;20.57;;;2.50;91.70;;;;;;5056256;28;20168;-87
2024/01/14 04:51:47;;;;;;;24.17;21.00;;;2.40;91.70;;;;;;5055985;28;20192;-87
2024/01/14 04:54:12;;;;;;;23.93;20.13;;;2.30;91.80;;;;;;5055914;28;20164;-88
2024/01/14 04:56:39;;;;;;;31.90;21.50;;;2.30;91.90;;;;;;5055949;28;20176;-87
2024/01/14 04:59:04;;;;;;;28.47;21.10;;;2.30;92.00;;;;;;5055722;28;20212;-86
2024/01/14 05:01:30;;;;;;;23.23;20.70;;;2.30;92.00;;;;;;5073853;28;20283;-87
2024/01/14 05:03:56;;;;;;;22.33;19.87;;;2.30;92.00;;;;;;5073828;28;20174;-87
2024/01/14 05:06:21;;;;;;;22.57;20.27;;;2.20;92.10;;;;;;5055997;28;20182;-87
2024/01/14 05:08:47;;;;;;;34.20;19.53;;;2.30;92.40;;;;;;5073882;28;20593;-86
2024/01/14 05:11:12;;;;;;;16.93;7.23;;;2.30;92.40;;;;;;5055322;28;20253;-86
2024/01/14 05:13:38;;;;;;;18.33;7.93;;;2.30;92.50;;;;;;5073806;28;20172;-87
2024/01/14 05:16:04;;;;;;;23.43;8.13;;;2.40;92.60;;;;;;5074082;28;20639;-87
2024/01/14 05:18:30;;;;;;;22.93;7.90;;;2.40;92.60;;;;;;5073689;28;20212;-87
2024/01/14 05:20:55;;;;;;;22.17;8.40;;;2.50;92.70;;;;;;5055551;28;20199;-87
2024/01/14 05:23:21;;;;;;;17.23;8.47;;;2.50;92.70;;;;;;5055470;28;20179;-87
2024/01/14 05:25:47;;;;;;;14.77;7.90;;;2.50;92.80;;;;;;5055586;28;20176;-87
2024/01/14 05:28:12;;;;;;;19.80;8.87;;;2.50;92.80;;;;;;5055631;28;20229;-86
2024/01/14 05:30:38;;;;;;;22.67;9.60;;;2.50;92.80;;;;;;5055674;28;20699;-86
2024/01/14 05:33:03;;;;;;;14.93;7.80;;;2.60;92.90;;;;;;5055366;28;20254;-87
2024/01/14 05:35:30;;;;;;;26.03;7.43;;;2.60;92.80;;;;;;5073264;28;20689;-87
2024/01/14 05:37:56;;;;;;;14.90;8.60;;;2.70;92.90;;;;;;5055603;28;20239;-87
2024/01/14 05:40:22;;;;;;;18.53;7.63;;;2.70;92.80;;;;;;5073388;28;20206;-87
2024/01/14 05:42:48;;;;;;;16.47;8.40;;;2.70;92.80;;;;;;5073487;28;20677;-86
2024/01/14 05:45:13;;;;;;;22.60;8.70;;;2.70;92.70;;;;;;5055407;28;20227;-87
2024/01/14 05:47:39;;;;;;;19.43;9.07;;;2.70;92.70;;;;;;5073151;28;20233;-87
2024/01/14 05:50:06;;;;;;;19.53;8.60;;;2.70;92.70;;;;;;5075562;28;20208;-86
2024/01/14 05:52:32;;;;;;;28.63;9.20;;;2.70;92.60;;;;;;5059107;28;20225;-87
2024/01/14 05:54:57;;;;;;;20.77;9.53;;;2.70;92.70;;;;;;5059441;28;20214;-86
2024/01/14 05:57:23;;;;;;;18.93;9.33;;;2.70;92.70;;;;;;5059122;28;20239;-86
2024/01/14 05:59:49;;;;;;;14.67;9.57;;;2.70;92.60;;;;;;5076978;28;20550;-87
2024/01/14 06:02:15;;;;;;;21.20;9.00;;;2.60;92.50;;;;;;5059967;28;20179;-87
2024/01/14 06:04:41;;;;;;;26.47;8.83;;;2.70;92.50;;;;;;5059137;28;20174;-87
2024/01/14 06:07:06;;;;;;;21.00;9.63;;;2.70;92.30;;;;;;5076752;28;20543;-87
2024/01/14 06:09:32;;;;;;;16.40;8.47;;;2.70;92.10;;;;;;5058710;28;20241;-87
2024/01/14 06:11:57;;;;;;;19.00;8.47;;;2.70;92.00;;;;;;5059014;28;20191;-86
2024/01/14 06:14:23;;;;;;;29.83;17.57;;;2.70;92.00;;;;;;5058798;28;20167;-87
2024/01/14 06:16:48;;;;;;;31.30;18.30;;;2.70;92.00;;;;;;5076466;28;20171;-87
2024/01/14 06:19:14;;;;;;;27.10;16.60;;;2.60;92.00;;;;;;5076682;28;20188;-86
2024/01/14 06:21:41;;;;;;;22.17;17.90;;;2.60;92.10;;;;;;5058601;28;20203;-86
2024/01/14 06:24:07;;;;;;;27.63;18.27;;;2.60;92.20;;;;;;5076653;28;20195;-87
2024/01/14 06:26:32;;;;;;;24.70;19.03;;;2.60;92.20;;;;;;5058490;28;20666;-87
2024/01/14 06:28:58;;;;;;;23.90;19.57;;;2.60;92.30;;;;;;5076189;28;20521;-87
2024/01/14 06:31:23;;;;;;;21.47;18.73;;;2.60;92.40;;;;;;5076459;28;20195;-86
2024/01/14 06:33:50;;;;;;;25.37;20.03;;;2.60;92.50;;;;;;5058718;28;20199;-87
2024/01/14 06:36:18;;;;;;;26.00;18.93;;;2.60;92.50;;;;;;5059186;28;20272;-87
2024/01/14 06:38:44;;;;;;;28.87;19.27;;;2.60;92.50;;;;;;5076296;28;20212;-87
2024/01/14 06:41:19;;;;;;;33.43;20.37;;;2.60;92.50;;;;;;5058227;28;20559;-87
2024/01/14 06:43:45;;;;;;;28.93;20.07;;;2.60;92.50;;;;;;5076324;28;20165;-86
2024/01/14 06:46:11;;;;;;;28.87;21.47;;;2.60;92.40;;;;;;5076295;28;20256;-87
2024/01/14 06:48:36;;;;;;;23.13;19.27;;;2.60;92.30;;;;;;5058172;28;20217;-86
2024/01/14 06:51:02;;;;;;;26.53;18.67;;;2.60;92.20;;;;;;5058221;28;20242;-86
2024/01/14 06:53:27;;;;;;;23.53;18.40;;;2.50;92.20;;;;;;5057847;28;20184;-86
2024/01/14 06:55:53;;;;;;;24.97;17.67;;;2.50;92.10;;;;;;5057923;28;20229;-86
2024/01/14 06:58:18;;;;;;;17.90;14.93;;;2.50;92.20;;;;;;5058372;28;20206;-89
2024/01/14 07:00:44;;;;;;;18.90;16.87;;;2.40;92.20;;;;;;5056895;28;20203;-86
2024/01/14 07:03:10;;;;;;;20.03;17.63;;;2.40;92.30;;;;;;5057728;28;20171;-86
2024/01/14 07:05:35;;;;;;;21.57;17.63;;;2.30;92.30;;;;;;5057916;28;20178;-86
2024/01/14 07:08:02;;;;;;;19.13;17.27;;;2.30;92.40;;;;;;5057737;28;20540;-87
2024/01/14 07:10:28;;;;;;;20.80;17.70;;;2.30;92.40;;;;;;5075511;28;20204;-86
2024/01/14 07:12:54;;;;;;;19.57;17.93;;;2.30;92.50;;;;;;5057770;28;20233;-86
2024/01/14 07:15:19;;;;;;;19.47;17.33;;;2.30;92.50;;;;;;5057571;28;20187;-86
2024/01/14 07:17:45;;;;;;;24.13;16.37;;;2.40;92.50;;;;;;5057682;28;20207;-86
2024/01/14 07:20:11;;;;;;;19.27;16.90;;;2.40;92.50;;;;;;5075237;28;20195;-87
2024/01/14 07:22:37;;;;;;;25.70;17.00;;;2.40;92.50;;;;;;5075387;28;20171;-86
2024/01/14 07:25:03;;;;;;;19.53;16.57;;;2.40;92.50;;;;;;5075332;28;20168;-87
2024/01/14 07:27:28;;;;;;;22.30;18.10;;;2.40;92.60;;;;;;5057592;28;20236;-87
2024/01/14 07:29:54;;;;;;;22.80;17.90;;;2.50;92.70;;;;;;5057374;28;20207;-86
2024/01/14 07:32:19;;;;;;;19.60;17.67;;;2.50;92.80;;;;;;5057433;28;20186;-86
2024/01/14 07:34:45;;;;;;;22.53;17.07;;;2.40;92.80;;;;;;5075330;28;20171;-87
2024/01/14 07:37:10;;;;;;;29.67;17.90;;;2.40;92.80;;;;;;5057336;28;20704;-87
2024/01/14 07:39:36;;;;;;;13.37;6.93;;;2.40;92.80;;;;;;5075273;28;20658;-87
2024/01/14 07:42:02;;;;;;;17.77;7.03;;;2.40;92.80;;;;;;5057332;28;20180;-87
2024/01/14 07:44:27;;;;;;;11.20;6.83;;;2.30;92.80;;;;;;5056907;28;20601;-87
2024/01/14 07:46:54;;;;;;;19.10;7.73;;;2.30;92.80;;;;;;5056927;28;20175;-87
2024/01/14 07:49:19;;;;;;;15.47;6.80;;;2.40;92.80;;;;;;5056935;28;20164;-86
2024/01/14 07:51:45;;;;;;;10.37;6.03;;;2.30;92.80;;;;;;5074953;28;20198;-87
2024/01/14 07:54:12;;;;;;;9.57;7.93;;;2.40;92.80;;;;;;5057016;28;20198;-87
2024/01/14 07:56:37;;;;;;;12.90;6.53;;;2.40;92.80;;;;;;5056798;28;20176;-86
2024/01/14 07:59:03;;;;;;;12.87;7.93;;;2.40;92.60;;;;;;5074781;28;20698;-87
2024/01/14 08:01:30;;;;;;;13.20;6.97;;;2.50;92.40;;;;;;5056755;28;20191;-87
2024/01/14 08:03:55;;;;;;;10.43;6.33;;;2.50;92.40;;;;;;5074688;28;20241;-87
2024/01/14 08:06:23;;;;;;;19.77;7.30;;;2.60;92.30;;;;;;5056811;28;20180;-87
2024/01/14 08:08:48;;;;;;;14.23;6.50;;;2.50;92.30;;;;;;5056736;28;20171;-87
2024/01/14 08:11:14;;;;;;;9.73;6.20;;;2.50;92.30;;;;;;5074461;28;20272;-86
2024/01/14 08:13:39;;;;;;;15.17;6.80;;;2.60;92.30;;;;;;5074653;28;20194;-86
2024/01/14 08:16:05;;;;;;;13.67;7.17;;;2.60;92.20;;;;;;5057241;28;20180;-85
2024/01/14 08:18:32;;;;;;;16.93;7.13;;;2.60;92.10;;;;;;5074678;28;20199;-87
2024/01/14 08:20:57;;;;;;;7.57;6.73;;;2.60;92.20;;;;;;5074062;28;20191;-86
2024/01/14 08:23:23;;;;;;;11.90;7.80;;;2.60;92.10;;;;;;5056338;28;20272;-86
2024/01/14 08:25:48;;;;;;;9.90;7.30;;;2.60;92.00;;;;;;5074236;28;20172;-86
2024/01/14 08:28:14;;;;;;;8.27;7.30;;;2.60;91.70;;;;;;5056220;28;20171;-86
2024/01/14 08:30:39;;;;;;;8.10;6.60;;;2.70;91.60;;;;;;5056315;28;20202;-86
2024/01/14 08:33:05;;;;;;;12.97;6.47;;;2.70;91.50;;;;;;5056076;28;20224;-86
2024/01/14 08:35:30;;;;;;;11.00;6.63;;;2.70;91.70;;;;;;5056333;28;20184;-87
2024/01/14 08:37:56;;;;;;;11.93;7.33;;;2.70;91.70;;;;;;5056350;28;20210;-86
2024/01/14 08:40:21;;;;;;;6.23;5.73;;;2.70;91.80;;;;;;5073871;28;20195;-86
2024/01/14 08:42:48;;;;;;;17.47;7.20;;;2.70;92.00;;;;;;5055883;28;20183;-86
2024/01/14 08:45:14;;;;;;;11.77;10.67;;;2.60;92.30;;;;;;5055899;28;20206;-86
2024/01/14 08:47:40;;;;;;;15.43;10.80;;;2.60;92.50;;;;;;5056062;28;20235;-86
2024/01/14 08:50:09;;;;;;;12.63;9.77;;;2.70;92.60;;;;;;5073666;28;20195;-86
2024/01/14 08:52:35;;;;;;;16.40;11.13;;;2.70;92.80;;;;;;5055630;28;20669;-87
2024/01/14 08:55:00;;;;;;;21.17;11.53;;;2.70;92.90;;;;;;5073847;28;20140;-86
2024/01/14 08:57:26;;;;;;;16.17;10.33;;;2.70;93.00;;;;;;5055610;28;20276;-87
2024/01/14 08:59:51;;;;;;;14.33;10.97;;;2.80;93.10;;;;;;5055960;28;20195;-87
2024/01/14 09:02:17;;;;;;;13.30;11.77;;;2.80;93.10;;;;;;5055772;28;20185;-88
2024/01/14 09:04:42;;;;;;;12.30;10.37;;;2.80;93.20;;;;;;5073759;28;20174;-86
2024/01/14 09:07:08;;;;;;;20.33;10.67;;;2.80;93.30;;;;;;5055888;28;20232;-87
2024/01/14 09:09:33;;;;;;;16.50;12.30;;;2.80;93.30;;;;;;5055691;28;20192;-87
2024/01/14 09:11:59;;;;;;;13.20;10.10;;;2.80;93.30;;;;;;5073569;28;20235;-87
2024/01/14 09:14:25;;;;;;;11.60;10.50;;;2.80;93.20;;;;;;5073699;28;20167;-86
2024/01/14 09:16:51;;;;;;;20.70;11.53;;;2.80;93.10;;;;;;5055583;28;20256;-87
2024/01/14 09:19:16;;;;;;;22.47;11.00;;;2.90;93.20;;;;;;5055418;28;20302;-86
2024/01/14 09:21:41;;;;;;;22.30;11.43;;;3.00;93.00;;;;;;5055407;28;20196;-86
2024/01/14 09:24:09;;;;;;;21.47;10.57;;;3.00;92.90;;;;;;5075482;28;20198;-86
2024/01/14 09:26:34;;;;;;;12.80;11.57;;;3.00;92.90;;;;;;5061991;28;20308;-86
2024/01/14 09:29:00;;;;;;;12.73;10.60;;;3.00;92.80;;;;;;5062069;28;20201;-86
2024/01/14 09:31:27;;;;;;;11.30;9.90;;;2.90;92.90;;;;;;5061890;28;20192;-89
2024/01/14 09:33:52;;;;;;;12.27;9.40;;;2.80;93.10;;;;;;5080226;28;20178;-86
2024/01/14 09:36:19;;;;;;;13.17;9.73;;;2.60;93.20;;;;;;5080297;28;20175;-88
2024/01/14 09:38:45;;;;;;;9.47;8.43;;;2.50;93.50;;;;;;5061826;28;20209;-86
2024/01/14 09:41:22;;;;;;;10.20;9.27;;;2.50;94.00;;;;;;5062115;28;20191;-86
2024/01/14 09:43:51;;;;;;;15.23;9.57;;;2.60;94.00;;;;;;5062267;28;20652;-87
2024/01/14 09:46:18;;;;;;;20.03;9.70;;;2.60;94.00;;;;;;5080093;28;20182;-86
2024/01/14 09:48:46;;;;;;;10.67;9.17;;;2.60;93.90;;;;;;5080160;28;20175;-87
2024/01/14 09:51:14;;;;;;;7.70;6.87;;;2.60;94.00;;;;;;5062066;28;20195;-86
2024/01/14 09:53:40;;;;;;;8.83;6.33;;;2.70;94.10;;;;;;5061888;28;20662;-86
2024/01/14 09:56:09;;;;;;;10.53;7.83;;;2.80;94.20;;;;;;5062222;28;20265;-87
2024/01/14 09:58:36;;;;;;;15.27;7.90;;;2.80;94.00;;;;;;5080360;28;20208;-87
2024/01/14 10:01:04;;;;;;;19.30;9.53;;;2.80;94.00;;;;;;5062846;28;20195;-87
2024/01/14 10:03:30;;;;;;;19.60;9.33;;;3.00;94.00;;;;;;5080337;28;20640;-88
2024/01/14 10:05:56;;;;;;;9.53;8.27;;;3.10;94.00;;;;;;5079854;28;20179;-86
2024/01/14 10:08:21;;;;;;;18.07;8.87;;;3.00;93.90;;;;;;5062110;28;20179;-87
2024/01/14 10:10:53;;;;;;;8.77;7.23;;;2.90;93.90;;;;;;5062012;28;20260;-87
2024/01/14 10:13:22;;;;;;;12.47;7.77;;;2.90;93.80;;;;;;5080053;28;20179;-86
2024/01/14 10:15:48;;;;;;;18.77;10.67;;;2.80;93.80;;;;;;5079870;28;20651;-87
2024/01/14 10:18:15;;;;;;;13.97;10.50;;;2.90;93.80;;;;;;5061672;28;20674;-87
2024/01/14 10:20:40;;;;;;;13.47;6.80;;;2.80;93.70;;;;;;5079706;28;20243;-87
2024/01/14 10:23:06;;;;;;;15.40;7.80;;;2.80;93.70;;;;;;5061706;28;20259;-87
2024/01/14 10:25:31;;;;;;;7.87;7.10;;;2.80;93.60;;;;;;5079478;28;20168;-86
2024/01/14 10:28:03;;;;;;;11.20;7.70;;;2.80;93.60;;;;;;5080121;28;20171;-87
2024/01/14 10:30:28;;;;;;;18.37;8.40;;;2.90;93.70;;;;;;5061423;28;20570;-86
2024/01/14 10:32:54;;;;;;;10.00;8.17;;;3.00;93.60;;;;;;5079896;28;20182;-86
2024/01/14 10:35:20;;;;;;;18.97;9.70;;;3.00;93.60;;;;;;5060264;28;20183;-87
2024/01/14 10:37:45;;;;;;;10.67;8.90;;;3.00;93.50;;;;;;5076481;28;20209;-87
2024/01/14 10:40:12;;;;;;;13.10;8.20;;;3.10;93.50;;;;;;5058262;28;20188;-86
2024/01/14 10:42:38;;;;;;;9.53;8.83;;;3.20;93.50;;;;;;5076315;28;20601;-87
2024/01/14 10:45:07;;;;;;;22.40;10.00;;;3.10;93.30;;;;;;5058235;28;20268;-86
2024/01/14 10:47:36;;;;;;;12.40;9.47;;;3.10;93.30;;;;;;5076430;28;20204;-86
2024/01/14 10:50:03;;;;;;;10.97;8.93;;;3.10;93.20;;;;;;5058172;28;20195;-86
2024/01/14 10:52:33;;;;;;;12.63;8.90;;;3.10;93.20;;;;;;5076489;28;20196;-86
2024/01/14 10:55:11;;;;;;;14.10;10.35;;;3.10;93.10;;;;;;5058300;28;20179;-86
2024/01/14 10:57:37;;;;;;;13.03;7.00;;;3.10;93.10;;;;;;5058077;28;20344;-86
2024/01/14 11:00:05;;;;;;;11.83;6.30;;;3.10;93.10;;;;;;5076336;28;20218;-90
2024/01/14 11:02:33;;;;;;;11.70;6.57;;;3.10;93.00;;;;;;5057495;28;20176;-90
2024/01/14 11:04:59;;;;;;;11.83;5.47;;;3.10;93.10;;;;;;5057644;28;20262;-87
2024/01/14 11:07:25;;;;;;;14.43;5.97;;;3.00;93.10;;;;;;5075741;28;20180;-86
2024/01/14 11:09:52;;;;;;;14.13;6.37;;;3.00;93.10;;;;;;5075795;28;20693;-86
2024/01/14 11:12:20;;;;;;;12.30;6.70;;;3.00;93.10;;;;;;5058003;28;20183;-86
2024/01/14 11:14:59;;;;;;;12.63;6.27;;;3.10;93.20;;;;;;5057771;28;20271;-86
2024/01/14 11:17:43;;;;;;;15.23;6.10;;;3.00;93.20;;;;;;5075415;28;20195;-86
2024/01/14 11:20:14;;;;;;;5.60;5.03;;;3.00;93.10;;;;;;5057255;28;20195;-86
2024/01/14 11:22:40;;;;;;;7.13;5.40;;;3.10;93.10;;;;;;5057588;28;20174;-86
2024/01/14 11:25:13;;;;;;;8.83;5.53;;;3.00;93.10;;;;;;5057644;28;20540;-86
2024/01/14 11:27:39;;;;;;;10.70;5.73;;;3.00;93.10;;;;;;5075517;28;20528;-86
2024/01/14 11:30:16;;;;;;;11.80;5.70;;;3.00;93.10;;;;;;5075598;28;20253;-86
2024/01/14 11:32:42;;;;;;;12.93;5.80;;;3.00;93.10;;;;;;5057391;28;20171;-86
2024/01/14 11:35:09;;;;;;;5.57;4.93;;;3.10;93.10;;;;;;5058396;28;20179;-86
2024/01/14 11:37:38;;;;;;;10.07;6.13;;;3.10;93.10;;;;;;5057844;28;20226;-86
2024/01/14 11:40:06;;;;;;;12.80;5.20;;;3.10;93.10;;;;;;5057800;28;20279;-87
2024/01/14 11:42:32;;;;;;;12.83;5.70;;;3.10;93.30;;;;;;5057642;28;20178;-87
2024/01/14 11:45:13;;;;;;;8.27;5.50;;;3.10;93.40;;;;;;5057652;28;20173;-87
2024/01/14 11:47:45;;;;;;;11.93;6.10;;;3.10;93.60;;;;;;5057451;28;20187;-87
2024/01/14 11:50:11;;;;;;;10.70;5.20;;;3.10;93.70;;;;;;5075915;28;20199;-87
2024/01/14 11:52:41;;;;;;;10.43;4.90;;;3.10;93.70;;;;;;5075537;28;20641;-86
2024/01/14 11:55:12;;;;;;;7.80;5.33;;;3.20;93.70;;;;;;5058221;28;20583;-87
2024/01/14 11:57:37;;;;;;;9.67;5.10;;;3.30;93.60;;;;;;5075632;28;20181;-86
2024/01/14 12:00:05;;;;;;;15.13;6.03;;;3.30;93.40;;;;;;5075585;28;20572;-87
2024/01/14 12:02:31;;;;;;;11.70;4.97;;;3.30;93.30;;;;;;5056803;28;20176;-86
2024/01/14 12:04:56;;;;;;;5.57;5.07;;;3.30;93.00;;;;;;5056716;28;20182;-87
2024/01/14 12:07:22;;;;;;;8.10;5.20;;;3.20;92.90;;;;;;5075791;28;20648;-87
2024/01/14 12:09:53;;;;;;;10.47;4.83;;;3.30;92.90;;;;;;5075630;28;20207;-87
2024/01/14 12:12:18;;;;;;;17.60;8.17;;;3.30;92.90;;;;;;5058357;28;20263;-87
2024/01/14 12:14:44;;;;;;;6.07;4.67;;;3.50;93.00;;;;;;5057733;28;20660;-86
2024/01/14 12:17:10;;;;;;;14.67;5.40;;;3.30;93.00;;;;;;5057171;28;20173;-87
2024/01/14 12:19:36;;;;;;;12.93;5.93;;;3.30;93.30;;;;;;5075242;28;20537;-87
2024/01/14 12:22:02;;;;;;;12.67;5.60;;;3.20;93.40;;;;;;5057385;28;20176;-87
2024/01/14 12:24:28;;;;;;;10.53;5.03;;;3.20;93.60;;;;;;5075104;28;20176;-87
2024/01/14 12:26:57;;;;;;;10.03;5.93;;;3.30;93.70;;;;;;5056937;28;20171;-91
2024/01/14 12:29:30;;;;;;;11.67;7.43;;;3.30;93.70;;;;;;5056341;28;20182;-87
2024/01/14 12:31:55;;;;;;;15.50;9.37;;;3.30;93.80;;;;;;5075804;28;20160;-88
2024/01/14 12:34:22;;;;;;;15.80;9.63;;;3.30;93.90;;;;;;5057393;28;20720;-87
2024/01/14 12:36:48;;;;;;;11.37;8.63;;;3.30;94.00;;;;;;5057506;28;20183;-88
2024/01/14 12:39:15;;;;;;;16.67;9.03;;;3.30;94.10;;;;;;5056964;28;20581;-87